createdAt,value
2023-01-28T00:02:25.803Z,99885.66
2023-01-28T00:04:57.499Z,99887.44
2023-01-28T00:07:29.276Z,99884.13
2023-01-28T00:10:00.949Z,99892.31
2023-01-28T00:12:32.639Z,99888.94
2023-01-28T00:15:04.660Z,99887.94
2023-01-28T00:17:37.164Z,99884.00
2023-01-28T00:20:09.523Z,99882.53
2023-01-28T00:22:41.235Z,99880.69
2023-01-28T00:25:13.326Z,99875.38
2023-01-28T00:27:45.321Z,99874.25
2023-01-28T00:30:17.983Z,99883.34
2023-01-28T00:32:49.668Z,99877.38
2023-01-28T00:35:21.392Z,99883.53
2023-01-28T00:37:53.054Z,99884.38
2023-01-28T00:40:24.791Z,99881.97
2023-01-28T00:42:56.463Z,99880.22
2023-01-28T00:45:28.427Z,99885.50
2023-01-28T00:48:00.049Z,99882.81
2023-01-28T00:50:31.836Z,99881.59
2023-01-28T00:53:03.847Z,99886.56
2023-01-28T00:55:35.529Z,99894.38
2023-01-28T00:58:07.152Z,99892.63
2023-01-28T01:00:38.901Z,99883.22
2023-01-28T01:03:10.614Z,99892.06
2023-01-28T01:05:42.314Z,99890.31
2023-01-28T01:08:14.011Z,99889.38
2023-01-28T01:10:45.751Z,99897.81
2023-01-28T01:13:19.746Z,99889.19
2023-01-28T01:15:51.478Z,99891.69
2023-01-28T01:18:23.505Z,99895.66
2023-01-28T01:20:58.904Z,99892.63
2023-01-28T01:23:31.547Z,99899.59
2023-01-28T01:26:04.863Z,99906.56
2023-01-28T01:28:37.198Z,99907.41
2023-01-28T01:31:14.061Z,99914.56
2023-01-28T01:33:48.099Z,99905.84
2023-01-28T01:36:21.833Z,99915.59
2023-01-28T01:38:55.252Z,99918.28
2023-01-28T01:41:33.008Z,99920.78
2023-01-28T01:44:06.528Z,99920.63
2023-01-28T01:46:51.178Z,99921.63
2023-01-28T01:49:26.415Z,99918.00
2023-01-28T01:52:06.921Z,99926.44
2023-01-28T01:54:44.945Z,99927.47
2023-01-28T01:57:23.930Z,99923.22
2023-01-28T01:59:58.348Z,99922.16
2023-01-28T02:02:30.180Z,99915.59
2023-01-28T02:05:03.393Z,99915.88
2023-01-28T02:07:36.212Z,99922.09
2023-01-28T02:10:10.305Z,99916.81
2023-01-28T02:12:57.829Z,99923.59
2023-01-28T02:15:34.147Z,99926.09
2023-01-28T02:18:07.536Z,99926.66
2023-01-28T02:20:59.006Z,99917.56
2023-01-28T02:23:55.615Z,99921.91
2023-01-28T02:26:36.010Z,99923.03
2023-01-28T02:29:28.368Z,99923.59
2023-01-28T02:32:24.730Z,99926.84
2023-01-28T02:35:16.032Z,99922.25
2023-01-28T02:37:55.068Z,99928.84
2023-01-28T02:40:34.379Z,99931.34
2023-01-28T02:43:08.128Z,99922.63
2023-01-28T02:45:58.553Z,99924.94
2023-01-28T02:48:33.458Z,99935.88
2023-01-28T02:51:18.740Z,99929.66
2023-01-28T02:54:12.620Z,99925.75
2023-01-28T02:57:03.027Z,99929.59
2023-01-28T02:59:49.616Z,99925.22
2023-01-28T03:02:45.312Z,99924.22
2023-01-28T03:06:03.497Z,99932.44
2023-01-28T03:09:01.183Z,99932.28
2023-01-28T03:11:58.569Z,99932.09
2023-01-28T03:14:50.984Z,99929.69
2023-01-28T03:17:56.632Z,99923.25
2023-01-28T03:20:53.979Z,99933.56
2023-01-28T03:24:12.716Z,99932.19
2023-01-28T03:27:19.287Z,99929.97
2023-01-28T03:30:19.117Z,99933.97
2023-01-28T03:33:10.536Z,99930.13
2023-01-28T03:36:01.128Z,99924.84
2023-01-28T03:38:42.139Z,99929.22
2023-01-28T03:41:25.125Z,99925.13
2023-01-28T03:44:17.814Z,99940.94
2023-01-28T03:46:51.708Z,99941.75
2023-01-28T03:49:23.552Z,99946.59
2023-01-28T03:51:55.284Z,99944.81
2023-01-28T03:54:26.946Z,99936.94
2023-01-28T03:56:58.653Z,99941.75
2023-01-28T03:59:30.426Z,99943.59
2023-01-28T04:02:06.332Z,99937.75
2023-01-28T04:04:39.605Z,99944.06
2023-01-28T04:07:14.286Z,99944.06
2023-01-28T04:10:08.819Z,99940.44
2023-01-28T04:12:50.129Z,99933.41
2023-01-28T04:15:24.059Z,99944.06
2023-01-28T04:17:58.821Z,99943.31
2023-01-28T04:20:33.823Z,99941.34
2023-01-28T04:23:07.921Z,99938.53
2023-01-28T04:25:40.030Z,99946.06
2023-01-28T04:28:13.717Z,99946.72
2023-01-28T04:30:45.446Z,99945.88
2023-01-28T04:33:35.734Z,99947.41
2023-01-28T04:36:26.110Z,99950.66
2023-01-28T04:39:16.505Z,99954.31
2023-01-28T04:42:06.204Z,99950.03
2023-01-28T04:44:56.702Z,99955.31
2023-01-28T04:48:03.879Z,99959.50
2023-01-28T04:51:07.927Z,99955.06
2023-01-28T04:53:56.597Z,99958.38
2023-01-28T04:56:34.572Z,99960.16
2023-01-28T04:59:06.664Z,99959.88
2023-01-28T05:01:40.699Z,99958.28
2023-01-28T05:04:15.287Z,99971.94
2023-01-28T05:06:47.042Z,99967.78
2023-01-28T05:09:23.033Z,99959.13
2023-01-28T05:11:56.416Z,99972.06
2023-01-28T05:14:28.485Z,99967.56
2023-01-28T05:17:06.154Z,99966.09
2023-01-28T05:19:37.844Z,99968.88
2023-01-28T05:22:14.978Z,99974.91
2023-01-28T05:24:49.376Z,99968.78
2023-01-28T05:27:21.193Z,99974.19
2023-01-28T05:29:52.858Z,99969.28
2023-01-28T05:32:26.167Z,99972.44
2023-01-28T05:34:58.309Z,99972.44
2023-01-28T05:37:30.555Z,99973.28
2023-01-28T05:40:02.990Z,99977.97
2023-01-28T05:42:35.094Z,99983.09
2023-01-28T05:45:20.906Z,99982.81
2023-01-28T05:48:11.181Z,99987.38
2023-01-28T05:51:09.036Z,99984.78
2023-01-28T05:53:43.256Z,99983.72
2023-01-28T05:56:16.902Z,99973.53
2023-01-28T05:58:48.594Z,99980.41
2023-01-28T06:01:20.652Z,99985.69
2023-01-28T06:03:57.662Z,99986.63
2023-01-28T06:06:33.109Z,99982.34
2023-01-28T06:09:05.612Z,99991.91
2023-01-28T06:11:37.382Z,99993.81
2023-01-28T06:14:10.406Z,99993.06
2023-01-28T06:17:00.562Z,99993.81
2023-01-28T06:19:41.649Z,100003.56
2023-01-28T06:22:13.660Z,100007.53
2023-01-28T06:24:45.292Z,100012.88
2023-01-28T06:27:17.064Z,100011.19
2023-01-28T06:29:48.779Z,100011.75
2023-01-28T06:32:24.492Z,100021.97
2023-01-28T06:34:57.547Z,100017.53
2023-01-28T06:37:29.275Z,100013.34
2023-01-28T06:40:00.955Z,100025.22
2023-01-28T06:42:32.647Z,100019.00
2023-01-28T06:45:04.622Z,100025.03
2023-01-28T06:47:36.244Z,100031.34
2023-01-28T06:50:08.623Z,100029.41
2023-01-28T06:52:41.662Z,100032.66
2023-01-28T06:55:14.901Z,100034.78
2023-01-28T06:57:48.610Z,100042.88
2023-01-28T07:00:20.597Z,100045.50
2023-01-28T07:02:57.063Z,100045.97
2023-01-28T07:05:33.997Z,100053.75
2023-01-28T07:08:05.804Z,100056.28
2023-01-28T07:10:37.589Z,100060.44
2023-01-28T07:13:09.743Z,100061.50
2023-01-28T07:15:41.763Z,100058.03
2023-01-28T07:18:13.408Z,100061.78
2023-01-28T07:20:45.220Z,100059.59
2023-01-28T07:23:16.878Z,100067.25
2023-01-28T07:25:48.553Z,100057.47
2023-01-28T07:28:21.613Z,100071.44
2023-01-28T07:30:53.897Z,100078.78
2023-01-28T07:33:25.807Z,100081.09
2023-01-28T07:35:57.614Z,100074.03
2023-01-28T07:38:29.369Z,100082.31
2023-01-28T07:41:01.013Z,100075.97
2023-01-28T07:43:32.709Z,100077.47
2023-01-28T07:46:08.354Z,100076.09
2023-01-28T07:48:40.102Z,100076.16
2023-01-28T07:51:12.051Z,100080.38
2023-01-28T07:53:43.708Z,100078.50
2023-01-28T07:56:17.416Z,100086.31
2023-01-28T07:58:51.884Z,100083.03
2023-01-28T08:01:23.814Z,100094.66
2023-01-28T08:03:55.597Z,100092.59
2023-01-28T08:06:29.211Z,100102.44
2023-01-28T08:09:06.033Z,100104.97
2023-01-28T08:11:41.493Z,100102.38
2023-01-28T08:14:13.250Z,100106.94
2023-01-28T08:16:44.959Z,100112.88
2023-01-28T08:19:18.348Z,100116.88
2023-01-28T08:21:50.187Z,100121.69
2023-01-28T08:24:21.932Z,100124.03
2023-01-28T08:26:53.631Z,100117.72
2023-01-28T08:29:26.690Z,100117.53
2023-01-28T08:31:58.391Z,100122.72
2023-01-28T08:34:30.222Z,100116.13
2023-01-28T08:39:31.477Z,100126.91
2023-01-28T08:42:03.189Z,100133.16
2023-01-28T08:44:34.898Z,100124.31
2023-01-28T08:47:06.703Z,100129.59
2023-01-28T08:49:38.417Z,100133.75
2023-01-28T08:52:11.091Z,100136.28
2023-01-28T08:54:42.836Z,100138.25
2023-01-28T08:57:14.513Z,100143.66
2023-01-28T08:59:46.415Z,100147.84
2023-01-28T09:02:30.641Z,100145.06
2023-01-28T09:05:03.433Z,100144.69
2023-01-28T09:07:36.189Z,100148.50
2023-01-28T09:10:09.808Z,100151.50
2023-01-28T09:12:41.767Z,100155.19
2023-01-28T09:15:14.074Z,100154.34
2023-01-28T09:17:45.838Z,100153.72
2023-01-28T09:20:17.998Z,100150.19
2023-01-28T09:22:49.770Z,100151.75
2023-01-28T09:25:21.512Z,100159.09
2023-01-28T09:27:53.197Z,100160.00
2023-01-28T09:30:25.496Z,100159.09
2023-01-28T09:32:58.365Z,100161.94
2023-01-28T09:35:30.079Z,100172.19
2023-01-28T09:38:01.748Z,100180.16
2023-01-28T09:40:36.485Z,100174.16
2023-01-28T09:43:25.789Z,100173.63
2023-01-28T09:46:02.864Z,100170.03
2023-01-28T09:48:39.501Z,100179.59
2023-01-28T09:51:21.459Z,100179.88
2023-01-28T09:53:57.094Z,100171.38
2023-01-28T09:56:37.837Z,100175.19
2023-01-28T09:59:28.479Z,100185.78
2023-01-28T10:02:12.548Z,100188.03
2023-01-28T10:05:34.168Z,100184.75
2023-01-28T10:08:16.035Z,100181.56
2023-01-28T10:10:55.943Z,100182.34
2023-01-28T10:13:30.658Z,100180.38
2023-01-28T10:16:21.596Z,100186.25
2023-01-28T10:19:17.093Z,100184.09
2023-01-28T10:21:54.664Z,100177.56
2023-01-28T10:24:33.833Z,100185.34
2023-01-28T10:27:29.367Z,100188.06
2023-01-28T10:30:17.045Z,100191.06
2023-01-28T10:33:29.346Z,100188.53
2023-01-28T10:36:01.327Z,100188.06
2023-01-28T10:38:33.413Z,100189.50
2023-01-28T10:41:08.754Z,100193.97
2023-01-28T10:43:45.733Z,100195.16
2023-01-28T10:46:34.179Z,100195.81
2023-01-28T10:49:05.739Z,100196.56
2023-01-28T10:51:40.830Z,100202.09
2023-01-28T10:54:22.123Z,100206.63
2023-01-28T10:56:58.981Z,100197.47
2023-01-28T10:59:30.510Z,100198.91
2023-01-28T11:02:05.347Z,100210.75
2023-01-28T11:04:36.887Z,100206.38
2023-01-28T11:07:19.596Z,100212.59
2023-01-28T11:09:52.223Z,100211.06
2023-01-28T11:12:30.905Z,100207.81
2023-01-28T11:15:05.618Z,100215.53
2023-01-28T11:17:39.269Z,100220.91
2023-01-28T11:20:21.074Z,100223.09
2023-01-28T11:22:54.633Z,100215.22
2023-01-28T11:25:34.548Z,100215.28
2023-01-28T11:28:19.744Z,100219.13
2023-01-28T11:30:55.995Z,100218.69
2023-01-28T11:33:36.577Z,100216.38
2023-01-28T11:36:25.972Z,100223.66
2023-01-28T11:39:19.921Z,100224.50
2023-01-28T11:41:53.193Z,100223.66
2023-01-28T11:44:27.172Z,100218.78
2023-01-28T11:47:28.100Z,100222.16
2023-01-28T11:50:18.929Z,100223.91
2023-01-28T11:53:20.386Z,100220.53
2023-01-28T11:56:23.220Z,100221.47
2023-01-28T11:59:02.146Z,100228.34
2023-01-28T12:02:07.246Z,100227.81
2023-01-28T12:05:17.948Z,100225.06
2023-01-28T12:08:04.824Z,100233.19
2023-01-28T12:10:54.051Z,100228.69
2023-01-28T12:13:47.462Z,100230.69
2023-01-28T12:16:39.068Z,100229.75
2023-01-28T12:19:57.913Z,100237.56
2023-01-28T12:22:50.513Z,100225.66
2023-01-28T12:25:53.896Z,100231.88
2023-01-28T12:28:52.205Z,100245.00
2023-01-28T12:31:44.570Z,100233.84
2023-01-28T12:34:43.495Z,100233.13
2023-01-28T12:37:28.438Z,100224.81
2023-01-28T12:40:26.416Z,100227.47
2023-01-28T12:43:11.298Z,100238.97
2023-01-28T12:45:54.354Z,100246.22
2023-01-28T12:48:39.646Z,100243.44
2023-01-28T12:51:37.729Z,100240.72
2023-01-28T12:54:19.354Z,100235.44
2023-01-28T12:56:53.977Z,100241.09
2023-01-28T12:59:25.673Z,100240.63
2023-01-28T13:02:14.031Z,100243.78
2023-01-28T13:05:11.039Z,100232.31
2023-01-28T13:07:49.422Z,100239.03
2023-01-28T13:10:32.602Z,100237.19
2023-01-28T13:13:07.077Z,100237.88
2023-01-28T13:15:43.535Z,100241.63
2023-01-28T13:18:47.979Z,100250.19
2023-01-28T13:21:25.380Z,100248.81
2023-01-28T13:24:02.928Z,100251.25
2023-01-28T13:26:46.791Z,100250.44
2023-01-28T13:29:22.152Z,100244.22
2023-01-28T13:31:57.440Z,100246.81
2023-01-28T13:34:36.186Z,100255.78
2023-01-28T13:37:36.353Z,100247.13
2023-01-28T13:40:14.088Z,100259.22
2023-01-28T13:42:45.822Z,100252.25
2023-01-28T13:45:17.758Z,100244.38
2023-01-28T13:48:15.738Z,100252.31
2023-01-28T13:50:48.659Z,100251.16
2023-01-28T13:53:44.169Z,100260.03
2023-01-28T13:56:25.730Z,100259.97
2023-01-28T13:59:24.567Z,100255.97
2023-01-28T14:02:35.132Z,100260.75
2023-01-28T14:05:19.881Z,100266.22
2023-01-28T14:08:36.131Z,100268.34
2023-01-28T14:11:40.229Z,100273.56
2023-01-28T14:14:34.282Z,100272.44
2023-01-28T14:17:33.252Z,100281.97
2023-01-28T14:20:07.720Z,100283.72
2023-01-28T14:22:50.257Z,100297.31
2023-01-28T14:25:35.364Z,100289.25
2023-01-28T14:28:13.625Z,100291.63
2023-01-28T14:30:57.988Z,100302.44
2023-01-28T14:33:31.531Z,100303.84
2023-01-28T14:36:03.557Z,100308.16
2023-01-28T14:38:40.290Z,100311.03
2023-01-28T14:41:23.912Z,100318.00
2023-01-28T14:43:56.784Z,100315.25
2023-01-28T14:46:45.328Z,100311.41
2023-01-28T14:49:38.222Z,100318.44
2023-01-28T14:52:35.826Z,100317.09
2023-01-28T14:55:32.599Z,100322.53
2023-01-28T14:58:14.301Z,100325.03
2023-01-28T15:00:58.674Z,100326.22
2023-01-28T15:03:31.324Z,100331.19
2023-01-28T15:06:20.934Z,100336.50
2023-01-28T15:08:53.854Z,100334.25
2023-01-28T15:11:27.139Z,100338.84
2023-01-28T15:13:59.685Z,100346.19
2023-01-28T15:16:31.829Z,100342.59
2023-01-28T15:19:07.948Z,100338.97
2023-01-28T15:21:42.149Z,100349.03
2023-01-28T15:24:16.467Z,100344.50
2023-01-28T15:26:50.479Z,100355.41
2023-01-28T15:29:34.189Z,100360.66
2023-01-28T15:32:06.236Z,100358.00
2023-01-28T15:34:45.829Z,100366.56
2023-01-28T15:37:19.161Z,100361.47
2023-01-28T15:40:06.142Z,100359.16
2023-01-28T15:42:38.611Z,100358.44
2023-01-28T15:45:22.047Z,100357.19
2023-01-28T15:48:03.845Z,100364.16
2023-01-28T15:50:35.902Z,100375.75
2023-01-28T15:53:09.372Z,100375.88
2023-01-28T15:55:45.299Z,100388.16
2023-01-28T15:58:27.773Z,100383.53
2023-01-28T16:01:16.817Z,100388.16
2023-01-28T16:04:05.830Z,100388.75
2023-01-28T16:06:41.831Z,100391.09
2023-01-28T16:09:30.827Z,100406.94
2023-01-28T16:12:08.579Z,100400.44
2023-01-28T16:14:50.850Z,100404.97
2023-01-28T16:17:50.077Z,100396.97
2023-01-28T16:20:26.958Z,100407.53
2023-01-28T16:23:01.551Z,100407.66
2023-01-28T16:25:39.880Z,100413.13
2023-01-28T16:28:20.253Z,100406.50
2023-01-28T16:30:52.706Z,100421.94
2023-01-28T16:33:25.065Z,100409.88
2023-01-28T16:36:08.339Z,100412.69
2023-01-28T16:38:42.802Z,100423.53
2023-01-28T16:41:27.009Z,100424.09
2023-01-28T16:44:01.266Z,100422.47
2023-01-28T16:46:33.580Z,100411.13
2023-01-28T16:49:05.508Z,100426.53
2023-01-28T16:51:40.660Z,100418.75
2023-01-28T16:54:15.366Z,100419.53
2023-01-28T16:56:47.306Z,100420.66
2023-01-28T16:59:19.114Z,100431.28
2023-01-28T17:01:51.097Z,100426.22
2023-01-28T17:04:25.561Z,100417.75
2023-01-28T17:06:57.240Z,100426.09
2023-01-28T17:09:29.002Z,100419.00
2023-01-28T17:12:02.458Z,100424.91
2023-01-28T17:14:34.189Z,100418.19
2023-01-28T17:17:05.918Z,100425.69
2023-01-28T17:19:37.643Z,100417.47
2023-01-28T17:22:11.485Z,100418.31
2023-01-28T17:24:43.350Z,100432.03
2023-01-28T17:27:15.290Z,100421.53
2023-01-28T17:29:46.964Z,100434.16
2023-01-28T17:32:18.718Z,100419.78
2023-01-28T17:34:50.365Z,100414.59
2023-01-28T17:37:22.037Z,100422.66
2023-01-28T17:39:53.827Z,100414.44
2023-01-28T17:42:27.399Z,100411.59
2023-01-28T17:45:03.090Z,100411.16
2023-01-28T17:47:34.790Z,100416.28
2023-01-28T17:50:06.854Z,100423.13
2023-01-28T17:52:39.065Z,100427.03
2023-01-28T17:55:12.023Z,100432.78
2023-01-28T17:57:45.064Z,100432.47
2023-01-28T18:00:17.647Z,100430.59
2023-01-28T18:02:50.311Z,100436.50
2023-01-28T18:05:22.145Z,100430.53
2023-01-28T18:07:53.790Z,100425.97
2023-01-28T18:10:25.494Z,100424.03
2023-01-28T18:12:57.303Z,100433.69
2023-01-28T18:15:31.762Z,100437.81
2023-01-28T18:18:03.613Z,100438.94
2023-01-28T18:20:35.275Z,100439.63
2023-01-28T18:23:07.406Z,100434.59
2023-01-28T18:25:39.102Z,100439.50
2023-01-28T18:28:10.752Z,100453.81
2023-01-28T18:30:42.410Z,100457.59
2023-01-28T18:33:14.119Z,100461.66
2023-01-28T18:35:46.694Z,100450.47
2023-01-28T18:38:18.650Z,100457.13
2023-01-28T18:40:55.670Z,100461.25
2023-01-28T18:43:28.842Z,100448.56
2023-01-28T18:46:00.740Z,100453.81
2023-01-28T18:48:32.551Z,100455.59
2023-01-28T18:51:07.303Z,100453.03
2023-01-28T18:53:39.961Z,100458.94
2023-01-28T18:56:11.661Z,100461.88
2023-01-28T18:58:43.289Z,100461.69
2023-01-28T19:01:14.955Z,100467.69
2023-01-28T19:03:47.130Z,100474.47
2023-01-28T19:06:18.855Z,100487.06
2023-01-28T19:09:03.192Z,100482.28
2023-01-28T19:11:35.419Z,100489.66
2023-01-28T19:14:14.067Z,100483.53
2023-01-28T19:16:45.801Z,100490.75
2023-01-28T19:19:17.815Z,100493.25
2023-01-28T19:21:49.482Z,100497.78
2023-01-28T19:24:23.959Z,100496.53
2023-01-28T19:26:59.181Z,100497.38
2023-01-28T19:29:33.726Z,100492.88
2023-01-28T19:32:05.716Z,100492.69
2023-01-28T19:34:37.488Z,100496.63
2023-01-28T19:37:11.254Z,100498.59
2023-01-28T19:39:43.743Z,100500.84
2023-01-28T19:42:15.465Z,100497.00
2023-01-28T19:44:47.142Z,100493.19
2023-01-28T19:47:18.892Z,100493.03
2023-01-28T19:49:50.634Z,100492.34
2023-01-28T19:52:22.364Z,100500.69
2023-01-28T19:54:54.040Z,100501.44
2023-01-28T19:57:26.019Z,100499.13
2023-01-28T19:59:57.696Z,100511.50
2023-01-28T20:02:29.387Z,100518.78
2023-01-28T20:05:01.471Z,100515.56
2023-01-28T20:07:33.254Z,100514.97
2023-01-28T20:10:05.387Z,100511.66
2023-01-28T20:12:37.075Z,100517.69
2023-01-28T20:15:09.030Z,100518.47
2023-01-28T20:17:40.746Z,100526.84
2023-01-28T20:20:12.571Z,100528.00
2023-01-28T20:22:44.302Z,100524.50
2023-01-28T20:25:17.148Z,100517.09
2023-01-28T20:27:49.100Z,100525.72
2023-01-28T20:30:20.873Z,100526.38
2023-01-28T20:32:55.749Z,100536.22
2023-01-28T20:35:27.430Z,100533.75
2023-01-28T20:38:04.023Z,100534.75
2023-01-28T20:40:36.580Z,100542.38
2023-01-28T20:43:09.426Z,100543.16
2023-01-28T20:45:41.354Z,100542.38
2023-01-28T20:48:13.009Z,100543.94
2023-01-28T20:50:47.646Z,100534.22
2023-01-28T20:53:19.303Z,100531.41
2023-01-28T20:55:58.437Z,100531.31
2023-01-28T20:58:30.250Z,100533.63
2023-01-28T21:01:02.291Z,100533.59
2023-01-28T21:03:34.022Z,100526.81
2023-01-28T21:06:05.942Z,100531.00
2023-01-28T21:08:37.659Z,100532.75
2023-01-28T21:11:10.092Z,100532.16
2023-01-28T21:13:41.847Z,100531.31
2023-01-28T21:16:13.523Z,100529.63
2023-01-28T21:18:45.521Z,100536.44
2023-01-28T21:21:25.480Z,100531.09
2023-01-28T21:24:00.159Z,100533.59
2023-01-28T21:26:31.874Z,100536.19
2023-01-28T21:29:04.132Z,100536.88
2023-01-28T21:31:35.924Z,100539.66
2023-01-28T21:34:08.400Z,100538.19
2023-01-28T21:36:40.613Z,100533.63
2023-01-28T21:39:12.283Z,100526.56
2023-01-28T21:41:43.935Z,100531.00
2023-01-28T21:44:15.651Z,100542.16
2023-01-28T21:46:47.412Z,100535.34
2023-01-28T21:49:19.295Z,100535.63
2023-01-28T21:51:51.030Z,100536.53
2023-01-28T21:54:22.751Z,100533.63
2023-01-28T21:56:54.411Z,100535.59
2023-01-28T21:59:29.038Z,100541.78
2023-01-28T22:02:04.017Z,100538.34
2023-01-28T22:04:38.180Z,100543.47
2023-01-28T22:07:12.584Z,100541.72
2023-01-28T22:09:45.474Z,100552.63
2023-01-28T22:12:17.159Z,100554.81
2023-01-28T22:14:50.193Z,100560.06
2023-01-28T22:17:21.976Z,100562.59
2023-01-28T22:19:54.563Z,100567.63
2023-01-28T22:22:27.575Z,100568.63
2023-01-28T22:24:59.928Z,100570.41
2023-01-28T22:27:32.831Z,100562.59
2023-01-28T22:30:04.999Z,100561.59
2023-01-28T22:32:36.659Z,100563.44
2023-01-28T22:35:08.731Z,100557.06
2023-01-28T22:37:40.385Z,100558.50
2023-01-28T22:40:12.504Z,100553.13
2023-01-28T22:42:47.131Z,100559.50
2023-01-28T22:45:18.951Z,100548.28
2023-01-28T22:47:50.801Z,100535.84
2023-01-28T22:50:22.950Z,100530.72
2023-01-28T22:52:54.616Z,100541.06
2023-01-28T22:55:26.330Z,100546.31
2023-01-28T22:57:57.979Z,100546.31
2023-01-28T23:00:29.656Z,100533.34
2023-01-28T23:03:01.737Z,100534.78
2023-01-28T23:05:33.462Z,100537.97
2023-01-28T23:08:11.710Z,100534.97
2023-01-28T23:10:50.147Z,100525.72
2023-01-28T23:13:23.683Z,100530.06
2023-01-28T23:16:13.645Z,100536.72
2023-01-28T23:19:03.985Z,100526.38
2023-01-28T23:21:54.680Z,100519.31
2023-01-28T23:24:28.555Z,100521.13
2023-01-28T23:27:02.973Z,100534.66
2023-01-28T23:29:34.673Z,100524.44
2023-01-28T23:32:09.866Z,100519.91
2023-01-28T23:34:46.526Z,100512.19
2023-01-28T23:37:18.241Z,100522.22
2023-01-28T23:39:49.848Z,100527.41
2023-01-28T23:42:21.601Z,100518.06
2023-01-28T23:44:53.529Z,100529.38
2023-01-28T23:47:25.247Z,100524.28
2023-01-28T23:49:56.898Z,100528.78
2023-01-28T23:52:29.535Z,100528.94
2023-01-28T23:55:01.192Z,100527.41
2023-01-28T23:57:33.784Z,100518.78
